Time,TemperatureF,DewpointF,PressureIn,WindDirection,WindDirectionDegrees,WindSpeedMPH,WindSpeedGustMPH,Humidity,HourlyPrecipIn,Conditions,Clouds,dailyrainin,SoftwareType,DateUTC
2013-01-23 01:00:00,12.0,-8.0,-100.00,NW,313,0.0,12.0,45,-99.99,,,-99.99,,2013-01-23 06:00:00,
2013-01-23 01:23:00,12.0,-8.0,-100.00,NW,313,0.0,12.0,45,-99.99,,,-99.99,,2013-01-23 06:23:00,
2013-01-23 01:33:00,12.0,-8.0,-100.00,NW,313,0.0,12.0,45,-99.99,,,-99.99,,2013-01-23 06:33:00,
2013-01-23 01:43:00,12.0,-8.0,-100.00,NW,313,0.0,12.0,45,-99.99,,,-99.99,,2013-01-23 06:43:00,
2013-01-23 01:53:00,12.0,-8.0,-100.00,NW,313,0.0,12.0,45,-99.99,,,-99.99,,2013-01-23 06:53:00,
2013-01-23 02:00:00,11.0,-9.0,-100.00,West,262,5.0,10.0,44,-99.99,,,-99.99,,2013-01-23 07:00:00,
2013-01-23 02:23:00,11.0,-9.0,-100.00,West,262,5.0,10.0,44,-99.99,,,-99.99,,2013-01-23 07:23:00,
2013-01-23 02:33:00,11.0,-9.0,-100.00,West,262,5.0,10.0,44,-99.99,,,-99.99,,2013-01-23 07:33:00,
2013-01-23 02:43:00,11.0,-9.0,-100.00,West,262,5.0,10.0,44,-99.99,,,-99.99,,2013-01-23 07:43:00,
2013-01-23 02:53:00,11.0,-9.0,-100.00,West,262,5.0,10.0,44,-99.99,,,-99.99,,2013-01-23 07:53:00,
2013-01-23 03:00:00,11.0,-7.0,-100.00,WSW,246,0.0,11.0,48,-99.99,,,-99.99,,2013-01-23 08:00:00,
2013-01-23 03:23:00,11.0,-7.0,-100.00,WSW,246,0.0,11.0,48,-99.99,,,-99.99,,2013-01-23 08:23:00,
2013-01-23 03:33:00,11.0,-7.0,-100.00,WSW,246,0.0,11.0,48,-99.99,,,-99.99,,2013-01-23 08:33:00,
2013-01-23 03:43:00,11.0,-7.0,-100.00,WSW,246,0.0,11.0,48,-99.99,,,-99.99,,2013-01-23 08:43:00,
2013-01-23 03:53:00,11.0,-7.0,-100.00,WSW,246,0.0,11.0,48,-99.99,,,-99.99,,2013-01-23 08:53:00,
2013-01-23 04:00:00,10.0,-7.0,-100.00,East,99,0.0,12.0,51,-99.99,,,-99.99,,2013-01-23 09:00:00,
2013-01-23 04:23:00,10.0,-7.0,-100.00,East,99,0.0,12.0,51,-99.99,,,-99.99,,2013-01-23 09:23:00,
2013-01-23 04:33:00,10.0,-7.0,-100.00,East,99,0.0,12.0,51,-99.99,,,-99.99,,2013-01-23 09:33:00,
2013-01-23 04:43:00,10.0,-7.0,-100.00,East,99,0.0,12.0,51,-99.99,,,-99.99,,2013-01-23 09:43:00,
2013-01-23 04:53:00,10.0,-7.0,-100.00,East,99,0.0,12.0,51,-99.99,,,-99.99,,2013-01-23 09:53:00,
2013-01-23 05:00:00,10.0,-6.0,-100.00,NW,311,0.0,11.0,52,-99.99,,,-99.99,,2013-01-23 10:00:00,
2013-01-23 05:23:00,10.0,-6.0,-100.00,NW,311,0.0,11.0,52,-99.99,,,-99.99,,2013-01-23 10:23:00,
2013-01-23 05:33:00,10.0,-6.0,-100.00,NW,311,0.0,11.0,52,-99.99,,,-99.99,,2013-01-23 10:33:00,
2013-01-23 05:43:00,10.0,-6.0,-100.00,NW,311,0.0,11.0,52,-99.99,,,-99.99,,2013-01-23 10:43:00,
2013-01-23 05:53:00,10.0,-6.0,-100.00,NW,311,0.0,11.0,52,-99.99,,,-99.99,,2013-01-23 10:53:00,
2013-01-23 06:00:00,10.0,-6.0,-100.00,West,276,0.0,8.0,54,-99.99,,,-99.99,,2013-01-23 11:00:00,
2013-01-23 06:23:00,10.0,-6.0,-100.00,West,276,0.0,8.0,54,-99.99,,,-99.99,,2013-01-23 11:23:00,
2013-01-23 06:34:00,10.0,-6.0,-100.00,West,276,0.0,8.0,54,-99.99,,,-99.99,,2013-01-23 11:34:00,
2013-01-23 06:43:00,10.0,-6.0,-100.00,West,276,0.0,8.0,54,-99.99,,,-99.99,,2013-01-23 11:43:00,
2013-01-23 06:53:00,10.0,-6.0,-100.00,West,276,0.0,8.0,54,-99.99,,,-99.99,,2013-01-23 11:53:00,
2013-01-23 07:00:00,9.0,-5.0,-100.00,WSW,253,1.0,7.0,57,-99.99,,,-99.99,,2013-01-23 12:00:00,
2013-01-23 07:33:00,9.0,-5.0,-100.00,WSW,253,1.0,7.0,57,-99.99,,,-99.99,,2013-01-23 12:33:00,
2013-01-23 07:43:00,9.0,-5.0,-100.00,WSW,253,1.0,7.0,57,-99.99,,,-99.99,,2013-01-23 12:43:00,
2013-01-23 07:53:00,9.0,-5.0,-100.00,WSW,253,1.0,7.0,57,-99.99,,,-99.99,,2013-01-23 12:53:00,
2013-01-23 08:00:00,11.0,-4.0,-100.00,WSW,245,4.0,10.0,56,-99.99,,,-99.99,,2013-01-23 13:00:00,
2013-01-23 08:23:00,11.0,-4.0,-100.00,WSW,245,4.0,10.0,56,-99.99,,,-99.99,,2013-01-23 13:23:00,
2013-01-23 08:34:00,11.0,-4.0,-100.00,WSW,245,4.0,10.0,56,-99.99,,,-99.99,,2013-01-23 13:34:00,
2013-01-23 08:43:00,11.0,-4.0,-100.00,WSW,245,4.0,10.0,56,-99.99,,,-99.99,,2013-01-23 13:43:00,
2013-01-23 08:53:00,11.0,-4.0,-100.00,WSW,245,4.0,10.0,56,-99.99,,,-99.99,,2013-01-23 13:53:00,
2013-01-23 09:00:00,14.0,-3.0,-100.00,South,177,0.0,14.0,51,-99.99,,,-99.99,,2013-01-23 14:00:00,
2013-01-23 09:24:00,14.0,-3.0,-100.00,South,177,0.0,14.0,51,-99.99,,,-99.99,,2013-01-23 14:24:00,
2013-01-23 09:33:00,14.0,-3.0,-100.00,South,177,0.0,14.0,51,-99.99,,,-99.99,,2013-01-23 14:33:00,
2013-01-23 09:43:00,14.0,-3.0,-100.00,South,177,0.0,14.0,51,-99.99,,,-99.99,,2013-01-23 14:43:00,
2013-01-23 09:53:00,14.0,-3.0,-100.00,South,177,0.0,14.0,51,-99.99,,,-99.99,,2013-01-23 14:53:00,
2013-01-23 10:00:00,17.0,-4.0,-100.00,NNE,24,0.0,14.0,41,-99.99,,,-99.99,,2013-01-23 15:00:00,
2013-01-23 10:23:00,17.0,-4.0,-100.00,NNE,24,0.0,14.0,41,-99.99,,,-99.99,,2013-01-23 15:23:00,
2013-01-23 10:33:00,17.0,-4.0,-100.00,NNE,24,0.0,14.0,41,-99.99,,,-99.99,,2013-01-23 15:33:00,
2013-01-23 10:43:00,17.0,-4.0,-100.00,NNE,24,0.0,14.0,41,-99.99,,,-99.99,,2013-01-23 15:43:00,
2013-01-23 10:53:00,17.0,-4.0,-100.00,NNE,24,0.0,14.0,41,-99.99,,,-99.99,,2013-01-23 15:53:00,
2013-01-23 11:00:00,18.0,-6.0,-100.00,SW,215,5.0,16.0,35,-99.99,,,-99.99,,2013-01-23 16:00:00,
2013-01-23 11:23:00,18.0,-6.0,-100.00,SW,215,5.0,16.0,35,-99.99,,,-99.99,,2013-01-23 16:23:00,
2013-01-23 11:33:00,18.0,-6.0,-100.00,SW,215,5.0,16.0,35,-99.99,,,-99.99,,2013-01-23 16:33:00,
2013-01-23 11:43:00,18.0,-6.0,-100.00,SW,215,5.0,16.0,35,-99.99,,,-99.99,,2013-01-23 16:43:00,
2013-01-23 11:53:00,18.0,-6.0,-100.00,SW,215,5.0,16.0,35,-99.99,,,-99.99,,2013-01-23 16:53:00,
2013-01-23 12:00:00,20.0,-6.0,-100.00,North,354,5.0,15.0,34,-99.99,,,-99.99,,2013-01-23 17:00:00,
2013-01-23 12:23:00,20.0,-6.0,-100.00,North,354,5.0,15.0,34,-99.99,,,-99.99,,2013-01-23 17:23:00,
2013-01-23 12:34:00,20.0,-6.0,-100.00,North,354,5.0,15.0,34,-99.99,,,-99.99,,2013-01-23 17:34:00,
2013-01-23 12:43:00,20.0,-6.0,-100.00,North,354,5.0,15.0,34,-99.99,,,-99.99,,2013-01-23 17:43:00,
2013-01-23 12:53:00,20.0,-6.0,-100.00,North,354,5.0,15.0,34,-99.99,,,-99.99,,2013-01-23 17:53:00,
2013-01-23 13:00:00,20.0,-3.0,-100.00,West,262,6.0,15.0,36,-99.99,,,-99.99,,2013-01-23 18:00:00,
2013-01-23 13:33:00,20.0,-3.0,-100.00,West,262,6.0,15.0,36,-99.99,,,-99.99,,2013-01-23 18:33:00,
2013-01-23 13:44:00,20.0,-3.0,-100.00,West,262,6.0,15.0,36,-99.99,,,-99.99,,2013-01-23 18:44:00,
2013-01-23 13:53:00,20.0,-3.0,-100.00,West,262,6.0,15.0,36,-99.99,,,-99.99,,2013-01-23 18:53:00,
2013-01-23 14:00:00,19.0,-6.0,-100.00,WSW,256,5.0,18.0,34,-99.99,,,-99.99,,2013-01-23 19:00:00,
2013-01-23 14:23:00,19.0,-6.0,-100.00,WSW,256,5.0,18.0,34,-99.99,,,-99.99,,2013-01-23 19:23:00,
2013-01-23 14:33:00,19.0,-6.0,-100.00,WSW,256,5.0,18.0,34,-99.99,,,-99.99,,2013-01-23 19:33:00,
2013-01-23 14:43:00,19.0,-6.0,-100.00,WSW,256,5.0,18.0,34,-99.99,,,-99.99,,2013-01-23 19:43:00,
2013-01-23 14:53:00,19.0,-6.0,-100.00,WSW,256,5.0,18.0,34,-99.99,,,-99.99,,2013-01-23 19:53:00,
2013-01-23 15:00:00,20.0,-5.0,-100.00,WSW,248,7.0,16.0,33,-99.99,,,-99.99,,2013-01-23 20:00:00,
2013-01-23 15:23:00,20.0,-5.0,-100.00,WSW,248,7.0,16.0,33,-99.99,,,-99.99,,2013-01-23 20:23:00,
2013-01-23 15:33:00,20.0,-5.0,-100.00,WSW,248,7.0,16.0,33,-99.99,,,-99.99,,2013-01-23 20:33:00,
2013-01-23 15:43:00,20.0,-5.0,-100.00,WSW,248,7.0,16.0,33,-99.99,,,-99.99,,2013-01-23 20:43:00,
2013-01-23 15:54:00,20.0,-5.0,-100.00,WSW,248,7.0,16.0,33,-99.99,,,-99.99,,2013-01-23 20:54:00,
2013-01-23 16:00:00,17.0,-4.0,-100.00,NNW,329,3.0,15.0,41,-99.99,,,-99.99,,2013-01-23 21:00:00,
2013-01-23 16:23:00,17.0,-4.0,-100.00,NNW,329,3.0,15.0,41,-99.99,,,-99.99,,2013-01-23 21:23:00,
2013-01-23 16:34:00,17.0,-4.0,-100.00,NNW,329,3.0,15.0,41,-99.99,,,-99.99,,2013-01-23 21:34:00,
2013-01-23 16:43:00,17.0,-4.0,-100.00,NNW,329,3.0,15.0,41,-99.99,,,-99.99,,2013-01-23 21:43:00,
2013-01-23 16:53:00,17.0,-4.0,-100.00,NNW,329,3.0,15.0,41,-99.99,,,-99.99,,2013-01-23 21:53:00,
2013-01-23 17:00:00,17.0,-2.0,-100.00,NNW,335,0.0,11.0,47,-99.99,,,-99.99,,2013-01-23 22:00:00,
2013-01-23 17:23:00,17.0,-2.0,-100.00,NNW,335,0.0,11.0,47,-99.99,,,-99.99,,2013-01-23 22:23:00,
2013-01-23 17:33:00,17.0,-2.0,-100.00,NNW,335,0.0,11.0,47,-99.99,,,-99.99,,2013-01-23 22:33:00,
2013-01-23 17:43:00,17.0,-2.0,-100.00,NNW,335,0.0,11.0,47,-99.99,,,-99.99,,2013-01-23 22:43:00,
2013-01-23 17:53:00,17.0,-2.0,-100.00,NNW,335,0.0,11.0,47,-99.99,,,-99.99,,2013-01-23 22:53:00,
2013-01-23 18:00:00,15.0,0.0,-100.00,West,264,0.0,11.0,55,-99.99,,,-99.99,,2013-01-23 23:00:00,
2013-01-23 18:23:00,15.0,0.0,-100.00,West,264,0.0,11.0,55,-99.99,,,-99.99,,2013-01-23 23:23:00,
2013-01-23 18:33:00,15.0,0.0,-100.00,West,264,0.0,11.0,55,-99.99,,,-99.99,,2013-01-23 23:33:00,
2013-01-23 18:43:00,15.0,0.0,-100.00,West,264,0.0,11.0,55,-99.99,,,-99.99,,2013-01-23 23:43:00,
2013-01-23 18:53:00,15.0,0.0,-100.00,West,264,0.0,11.0,55,-99.99,,,-99.99,,2013-01-23 23:53:00,
2013-01-23 19:00:00,13.0,0.0,-100.00,WSW,242,0.0,3.0,61,-99.99,,,-99.99,,2013-01-24 00:00:00,
2013-01-23 19:22:00,13.0,0.0,-100.00,WSW,242,0.0,3.0,61,-99.99,,,-99.99,,2013-01-24 00:22:00,
2013-01-23 19:33:00,13.0,0.0,-100.00,WSW,242,0.0,3.0,61,-99.99,,,-99.99,,2013-01-24 00:33:00,
2013-01-23 19:43:00,13.0,0.0,-100.00,WSW,242,0.0,3.0,61,-99.99,,,-99.99,,2013-01-24 00:43:00,
2013-01-23 19:53:00,13.0,0.0,-100.00,WSW,242,0.0,3.0,61,-99.99,,,-99.99,,2013-01-24 00:53:00,
2013-01-23 20:00:00,11.0,-1.0,-100.00,NNW,328,0.0,0.0,64,-99.99,,,-99.99,,2013-01-24 01:00:00,
2013-01-23 20:23:00,11.0,-1.0,-100.00,NNW,328,0.0,0.0,64,-99.99,,,-99.99,,2013-01-24 01:23:00,
2013-01-23 20:33:00,11.0,-1.0,-100.00,NNW,328,0.0,0.0,64,-99.99,,,-99.99,,2013-01-24 01:33:00,
2013-01-23 20:43:00,11.0,-1.0,-100.00,NNW,328,0.0,0.0,64,-99.99,,,-99.99,,2013-01-24 01:43:00,
2013-01-23 20:53:00,11.0,-1.0,-100.00,NNW,328,0.0,0.0,64,-99.99,,,-99.99,,2013-01-24 01:53:00,
2013-01-23 21:00:00,10.0,-1.0,-100.00,NNW,327,0.0,0.0,69,-99.99,,,-99.99,,2013-01-24 02:00:00,
2013-01-23 21:33:00,10.0,-1.0,-100.00,NNW,327,0.0,0.0,69,-99.99,,,-99.99,,2013-01-24 02:33:00,
2013-01-23 21:43:00,10.0,-1.0,-100.00,NNW,327,0.0,0.0,69,-99.99,,,-99.99,,2013-01-24 02:43:00,
2013-01-23 21:52:00,10.0,-1.0,-100.00,NNW,327,0.0,0.0,69,-99.99,,,-99.99,,2013-01-24 02:52:00,
2013-01-23 22:00:00,9.0,0.0,-100.00,WSW,258,0.0,0.0,75,-99.99,,,-99.99,,2013-01-24 03:00:00,
2013-01-23 22:33:00,9.0,0.0,-100.00,WSW,258,0.0,0.0,75,-99.99,,,-99.99,,2013-01-24 03:33:00,
2013-01-23 22:43:00,9.0,0.0,-100.00,WSW,258,0.0,0.0,75,-99.99,,,-99.99,,2013-01-24 03:43:00,
2013-01-23 22:53:00,9.0,0.0,-100.00,WSW,258,0.0,0.0,75,-99.99,,,-99.99,,2013-01-24 03:53:00,
2013-01-23 23:00:00,9.0,0.0,-100.00,WSW,250,0.0,0.0,76,-99.99,,,-99.99,,2013-01-24 04:00:00,
2013-01-23 23:22:00,9.0,0.0,-100.00,WSW,250,0.0,0.0,76,-99.99,,,-99.99,,2013-01-24 04:22:00,
2013-01-23 23:33:00,9.0,0.0,-100.00,WSW,250,0.0,0.0,76,-99.99,,,-99.99,,2013-01-24 04:33:00,
2013-01-23 23:43:00,9.0,0.0,-100.00,WSW,250,0.0,0.0,76,-99.99,,,-99.99,,2013-01-24 04:43:00,
2013-01-23 23:53:00,9.0,0.0,-100.00,WSW,250,0.0,0.0,76,-99.99,,,-99.99,,2013-01-24 04:53:00,